createdAt,value
2022-12-26T00:01:09.608Z,17.00
2022-12-26T00:03:56.595Z,17.02
2022-12-26T00:06:42.700Z,16.73
2022-12-26T00:09:28.341Z,14.63
2022-12-26T00:12:14.209Z,17.33
2022-12-26T00:15:00.235Z,18.73
2022-12-26T00:17:45.946Z,19.05
2022-12-26T00:20:31.485Z,20.25
2022-12-26T00:23:17.079Z,21.30
2022-12-26T00:26:08.312Z,26.63
2022-12-26T00:28:55.289Z,28.05
2022-12-26T00:31:41.164Z,28.15
2022-12-26T00:34:26.826Z,26.42
2022-12-26T00:37:12.467Z,21.95
2022-12-26T00:39:58.126Z,22.25
2022-12-26T00:42:44.799Z,21.02
2022-12-26T00:45:30.620Z,21.17
2022-12-26T00:48:16.210Z,20.35
2022-12-26T00:51:02.164Z,20.83
2022-12-26T00:53:48.161Z,21.35
2022-12-26T00:56:35.047Z,20.75
2022-12-26T00:59:21.930Z,20.80
2022-12-26T01:02:27.896Z,20.48
2022-12-26T01:05:13.785Z,19.10
2022-12-26T01:08:21.146Z,20.23
2022-12-26T01:11:08.255Z,20.42
2022-12-26T01:13:54.128Z,20.23
2022-12-26T01:16:40.588Z,19.10
2022-12-26T01:19:26.522Z,19.55
2022-12-26T01:22:12.308Z,18.88
2022-12-26T01:24:58.203Z,17.23
2022-12-26T01:27:44.265Z,16.73
2022-12-26T01:30:29.982Z,18.40
2022-12-26T01:33:16.161Z,18.40
2022-12-26T01:36:01.927Z,20.13
2022-12-26T01:38:47.501Z,19.65
2022-12-26T01:41:33.374Z,21.55
2022-12-26T01:44:56.609Z,23.13
2022-12-26T01:47:57.181Z,22.33
2022-12-26T01:50:42.839Z,21.88
2022-12-26T01:53:37.591Z,25.42
2022-12-26T01:56:36.494Z,25.30
2022-12-26T01:59:25.834Z,26.08
2022-12-26T02:02:11.823Z,23.65
2022-12-26T02:05:16.776Z,19.75
2022-12-26T02:08:17.636Z,18.77
2022-12-26T02:11:31.619Z,17.42
2022-12-26T02:14:17.600Z,15.77
2022-12-26T02:17:04.089Z,14.98
2022-12-26T02:20:04.107Z,16.13
2022-12-26T02:23:20.104Z,16.60
2022-12-26T02:26:24.005Z,18.42
2022-12-26T02:29:21.984Z,16.70
2022-12-26T02:32:26.326Z,16.63
2022-12-26T02:35:37.190Z,16.50
2022-12-26T02:38:48.492Z,16.73
2022-12-26T02:41:50.402Z,15.18
2022-12-26T02:44:54.823Z,14.27
2022-12-26T02:48:10.195Z,10.30
2022-12-26T02:51:14.230Z,10.38
2022-12-26T02:54:38.713Z,10.30
2022-12-26T02:57:50.133Z,10.68
2022-12-26T03:00:57.755Z,11.27
2022-12-26T03:04:08.668Z,11.55
2022-12-26T03:07:16.172Z,11.10
2022-12-26T03:10:25.934Z,10.70
2022-12-26T03:13:26.334Z,11.52
2022-12-26T03:16:31.114Z,10.02
2022-12-26T03:19:17.367Z,10.02
2022-12-26T03:22:27.725Z,10.57
2022-12-26T03:25:50.854Z,10.57
2022-12-26T03:28:36.776Z,11.18
2022-12-26T03:31:22.811Z,11.50
2022-12-26T03:34:28.154Z,11.07
2022-12-26T03:37:56.237Z,10.23
2022-12-26T03:41:10.138Z,10.35
2022-12-26T03:48:37.835Z,11.63
2022-12-26T03:52:31.421Z,10.82
2022-12-26T03:56:15.828Z,9.38
2022-12-26T03:59:26.685Z,9.93
2022-12-26T04:02:39.702Z,10.88
2022-12-26T04:05:49.340Z,9.63
2022-12-26T04:09:13.315Z,9.52
2022-12-26T04:12:19.382Z,8.65
2022-12-26T04:16:06.103Z,8.57
2022-12-26T04:19:27.228Z,9.45
2022-12-26T04:22:39.672Z,9.23
2022-12-26T04:25:58.883Z,9.00
2022-12-26T04:29:03.397Z,7.97
2022-12-26T04:32:17.242Z,8.93
2022-12-26T04:35:47.024Z,8.50
2022-12-26T04:38:57.830Z,7.70
2022-12-26T04:42:03.841Z,7.45
2022-12-26T04:44:50.359Z,7.90
2022-12-26T04:47:36.447Z,8.23
2022-12-26T04:50:22.158Z,7.75
2022-12-26T04:53:07.733Z,7.50
2022-12-26T04:55:53.441Z,7.60
2022-12-26T04:58:39.286Z,8.25
2022-12-26T05:01:44.232Z,7.22
2022-12-26T05:04:48.996Z,7.00
2022-12-26T05:07:54.988Z,7.63
2022-12-26T05:10:40.978Z,7.47
2022-12-26T05:13:26.986Z,6.65
2022-12-26T05:16:31.143Z,6.88
2022-12-26T05:19:37.522Z,6.63
2022-12-26T05:22:42.515Z,7.60
2022-12-26T05:25:52.575Z,7.88
2022-12-26T05:28:44.638Z,7.57
2022-12-26T05:31:35.578Z,7.65
2022-12-26T05:34:22.421Z,8.05
2022-12-26T05:37:08.098Z,8.27
2022-12-26T05:39:53.853Z,8.10
2022-12-26T05:42:39.628Z,8.85
2022-12-26T05:45:25.237Z,7.65
2022-12-26T05:48:10.868Z,11.25
2022-12-26T05:51:03.377Z,9.40
2022-12-26T05:53:49.430Z,10.07
2022-12-26T05:56:35.319Z,10.50
2022-12-26T05:59:20.974Z,9.57
2022-12-26T06:02:07.002Z,10.65
2022-12-26T06:04:52.942Z,11.40
2022-12-26T06:07:38.863Z,10.48
2022-12-26T06:10:26.908Z,10.80
2022-12-26T06:13:12.564Z,11.68
2022-12-26T06:15:59.337Z,9.88
2022-12-26T06:18:45.661Z,10.63
2022-12-26T06:21:31.592Z,8.95
2022-12-26T06:24:17.382Z,10.32
2022-12-26T06:27:03.261Z,9.38
2022-12-26T06:29:49.179Z,9.63
2022-12-26T06:32:35.055Z,10.25
2022-12-26T06:35:23.660Z,10.68
2022-12-26T06:38:11.115Z,10.80
2022-12-26T06:41:02.887Z,10.35
2022-12-26T06:43:49.779Z,10.15
2022-12-26T06:46:35.398Z,12.23
2022-12-26T06:49:21.037Z,13.63
2022-12-26T06:52:07.490Z,15.43
2022-12-26T06:54:53.535Z,14.20
2022-12-26T06:57:39.199Z,12.35
2022-12-26T07:00:25.229Z,11.48
2022-12-26T07:03:11.544Z,9.77
2022-12-26T07:05:57.405Z,10.48
2022-12-26T07:08:43.014Z,11.48
2022-12-26T07:11:31.130Z,12.23
2022-12-26T07:14:17.277Z,12.30
2022-12-26T07:17:02.864Z,13.93
2022-12-26T07:19:48.569Z,10.65
2022-12-26T07:22:34.346Z,11.80
2022-12-26T07:25:20.119Z,16.70
2022-12-26T07:28:12.009Z,23.48
2022-12-26T07:30:59.986Z,24.05
2022-12-26T07:33:53.425Z,18.67
2022-12-26T07:36:40.508Z,16.35
2022-12-26T07:39:26.038Z,15.07
2022-12-26T07:42:11.810Z,15.20
2022-12-26T07:44:57.614Z,15.75
2022-12-26T07:47:43.108Z,15.68
2022-12-26T07:50:29.292Z,16.67
2022-12-26T07:53:15.438Z,20.33
2022-12-26T07:56:01.771Z,57.17
2022-12-26T07:58:51.549Z,68.82
2022-12-26T08:01:37.672Z,98.32
2022-12-26T08:04:23.735Z,45.85
2022-12-26T08:07:10.058Z,46.25
2022-12-26T08:09:55.676Z,53.05
2022-12-26T08:12:42.012Z,47.45
2022-12-26T08:15:27.781Z,196.75
2022-12-26T08:18:13.502Z,140.27
2022-12-26T08:20:59.890Z,95.30
2022-12-26T08:23:48.443Z,49.42
2022-12-26T08:26:34.411Z,45.47
2022-12-26T08:29:20.206Z,47.30
2022-12-26T08:32:06.169Z,45.85
2022-12-26T08:34:51.985Z,41.75
2022-12-26T08:37:38.004Z,37.30
2022-12-26T08:40:42.082Z,36.50
2022-12-26T08:43:48.914Z,35.20
2022-12-26T08:46:36.124Z,35.75
2022-12-26T08:49:21.765Z,35.33
2022-12-26T08:52:07.633Z,29.17
2022-12-26T08:54:53.676Z,30.38
2022-12-26T08:57:39.305Z,28.30
2022-12-26T09:00:26.477Z,28.95
2022-12-26T09:03:12.236Z,29.42
2022-12-26T09:06:05.718Z,30.00
2022-12-26T09:08:53.680Z,32.42
2022-12-26T09:11:41.071Z,35.08
2022-12-26T09:14:26.833Z,36.55
2022-12-26T09:17:12.727Z,43.30
2022-12-26T09:19:58.725Z,46.47
2022-12-26T09:22:55.570Z,51.90
2022-12-26T09:25:41.438Z,51.78
2022-12-26T09:28:27.515Z,53.65
2022-12-26T09:31:17.311Z,63.33
2022-12-26T09:34:05.220Z,64.40
2022-12-26T09:36:51.042Z,64.70
2022-12-26T09:39:36.919Z,60.10
2022-12-26T09:42:32.122Z,57.72
2022-12-26T09:45:19.965Z,61.25
2022-12-26T09:48:56.595Z,58.88
2022-12-26T09:51:46.001Z,59.40
2022-12-26T09:54:34.343Z,61.30
2022-12-26T09:57:34.945Z,60.45
2022-12-26T10:00:25.722Z,59.03
2022-12-26T10:03:12.835Z,53.22
2022-12-26T10:06:01.766Z,53.35
2022-12-26T10:09:08.794Z,57.00
2022-12-26T10:12:06.280Z,59.00
2022-12-26T10:15:07.497Z,60.47
2022-12-26T10:18:03.047Z,61.50
2022-12-26T10:21:11.508Z,62.25
2022-12-26T10:24:20.967Z,68.47
2022-12-26T10:27:14.482Z,111.43
2022-12-26T10:30:09.183Z,68.55
2022-12-26T10:32:59.597Z,68.72
2022-12-26T10:35:46.541Z,70.63
2022-12-26T10:38:46.195Z,72.85
2022-12-26T10:41:38.585Z,66.35
2022-12-26T10:44:27.763Z,63.25
2022-12-26T10:47:40.655Z,64.80
2022-12-26T10:50:29.424Z,66.10
2022-12-26T10:53:16.220Z,68.80
2022-12-26T10:56:02.656Z,59.08
2022-12-26T10:59:02.536Z,54.28
2022-12-26T11:01:49.753Z,54.72
2022-12-26T11:05:10.466Z,58.42
2022-12-26T11:07:50.534Z,54.97
2022-12-26T11:10:36.388Z,51.40
2022-12-26T11:13:23.323Z,52.45
2022-12-26T11:16:11.575Z,53.30
2022-12-26T11:18:57.849Z,54.15
2022-12-26T11:21:43.791Z,52.08
2022-12-26T11:24:29.549Z,91.05
2022-12-26T11:27:23.717Z,53.80
2022-12-26T11:30:23.208Z,60.63
2022-12-26T11:33:33.999Z,49.58
2022-12-26T11:36:22.985Z,49.17
2022-12-26T11:39:25.306Z,50.22
2022-12-26T11:42:12.515Z,47.08
2022-12-26T11:45:00.231Z,49.65
2022-12-26T11:47:46.318Z,48.13
2022-12-26T11:50:32.327Z,46.35
2022-12-26T11:53:20.689Z,48.45
2022-12-26T11:56:07.256Z,50.20
2022-12-26T11:59:08.107Z,49.15
2022-12-26T12:02:15.214Z,49.55
2022-12-26T12:05:13.144Z,49.90
2022-12-26T12:08:14.497Z,49.40
2022-12-26T12:11:34.375Z,53.40
2022-12-26T12:14:35.818Z,59.30
2022-12-26T12:17:35.132Z,60.42
2022-12-26T12:20:35.968Z,84.40
2022-12-26T12:23:44.151Z,60.60
2022-12-26T12:26:38.056Z,107.15
2022-12-26T12:29:42.619Z,92.18
2022-12-26T12:33:09.566Z,85.35
2022-12-26T12:36:11.804Z,73.30
2022-12-26T12:39:34.673Z,70.28
2022-12-26T12:42:28.098Z,77.82
2022-12-26T12:45:22.364Z,78.25
2022-12-26T12:48:33.042Z,81.72
2022-12-26T12:51:35.970Z,87.25
2022-12-26T12:55:12.538Z,87.85
2022-12-26T12:58:26.366Z,87.20
2022-12-26T13:01:34.505Z,92.45
2022-12-26T13:04:29.313Z,96.95
2022-12-26T13:07:39.429Z,96.30
2022-12-26T13:10:33.279Z,98.80
2022-12-26T13:13:27.457Z,99.93
2022-12-26T13:16:17.414Z,101.78
2022-12-26T13:19:06.922Z,101.40
2022-12-26T13:21:56.069Z,95.80
2022-12-26T13:24:45.343Z,83.18
2022-12-26T13:27:34.032Z,78.35
2022-12-26T13:30:19.805Z,66.78
2022-12-26T13:33:05.967Z,67.50
2022-12-26T13:36:01.028Z,67.00
2022-12-26T13:38:56.249Z,62.95
2022-12-26T13:42:26.916Z,61.67
2022-12-26T13:45:37.534Z,64.55
2022-12-26T13:48:26.363Z,64.30
2022-12-26T13:51:46.269Z,64.13
2022-12-26T13:54:32.668Z,62.40
2022-12-26T13:57:30.361Z,58.60
2022-12-26T14:00:40.108Z,63.25
2022-12-26T14:03:55.663Z,64.40
2022-12-26T14:07:05.484Z,65.53
2022-12-26T14:10:05.398Z,66.30
2022-12-26T14:13:27.833Z,68.18
2022-12-26T14:16:54.182Z,64.70
2022-12-26T14:19:53.705Z,71.18
2022-12-26T14:23:04.602Z,71.53
2022-12-26T14:26:03.642Z,69.03
2022-12-26T14:28:52.573Z,69.95
2022-12-26T14:32:04.039Z,67.22
2022-12-26T14:35:09.518Z,69.18
2022-12-26T14:38:11.306Z,66.18
2022-12-26T14:41:06.132Z,68.30
2022-12-26T14:43:56.338Z,72.45
2022-12-26T14:46:43.692Z,77.32
2022-12-26T14:49:35.922Z,76.25
2022-12-26T14:52:25.568Z,81.10
2022-12-26T14:56:01.592Z,89.28
2022-12-26T14:58:54.117Z,85.78
2022-12-26T15:01:40.342Z,137.85
2022-12-26T15:04:32.558Z,102.05
2022-12-26T15:07:42.716Z,82.82
2022-12-26T15:11:23.885Z,88.95
2022-12-26T15:14:28.479Z,85.75
2022-12-26T15:17:49.296Z,81.72
2022-12-26T15:21:09.169Z,80.00
2022-12-26T15:24:09.984Z,80.72
2022-12-26T15:27:38.562Z,84.13
2022-12-26T15:30:41.745Z,84.00
2022-12-26T15:33:43.454Z,87.30
2022-12-26T15:37:08.812Z,84.20
2022-12-26T15:40:08.157Z,86.25
2022-12-26T15:43:04.008Z,81.68
2022-12-26T15:45:58.593Z,82.90
2022-12-26T15:48:47.564Z,82.78
2022-12-26T15:51:55.652Z,87.72
2022-12-26T15:55:05.040Z,84.97
2022-12-26T15:58:02.012Z,98.30
2022-12-26T16:00:54.098Z,155.23
2022-12-26T16:03:54.026Z,162.85
2022-12-26T16:06:48.824Z,144.43
2022-12-26T16:09:43.870Z,175.68
2022-12-26T16:12:32.713Z,189.60
2022-12-26T16:15:19.116Z,162.95
2022-12-26T16:18:26.630Z,165.45
2022-12-26T16:21:33.244Z,181.75
2022-12-26T16:24:22.087Z,181.63
2022-12-26T16:27:09.611Z,182.90
2022-12-26T16:29:58.169Z,186.10
2022-12-26T16:32:45.008Z,187.73
2022-12-26T16:35:36.659Z,191.20
2022-12-26T16:38:26.772Z,204.90
2022-12-26T16:41:30.799Z,205.30
2022-12-26T16:44:41.439Z,194.52
2022-12-26T16:47:29.190Z,177.70
2022-12-26T16:50:17.899Z,178.13
2022-12-26T16:53:13.597Z,185.45
2022-12-26T16:56:23.591Z,174.95
2022-12-26T16:59:17.960Z,173.90
2022-12-26T17:02:04.803Z,175.52
2022-12-26T17:04:58.849Z,173.40
2022-12-26T17:07:46.887Z,171.55
2022-12-26T17:10:35.427Z,164.32
2022-12-26T17:13:25.205Z,161.15
2022-12-26T17:16:11.275Z,175.10
2022-12-26T17:19:19.910Z,174.25
2022-12-26T17:22:18.022Z,177.30
2022-12-26T17:25:32.043Z,167.27
2022-12-26T17:31:24.931Z,166.48
2022-12-26T17:34:17.760Z,145.27
2022-12-26T17:37:20.538Z,129.40
2022-12-26T17:40:16.018Z,148.85
2022-12-26T17:43:34.440Z,363.15
2022-12-26T17:46:23.764Z,240.57
2022-12-26T17:49:09.609Z,226.40
2022-12-26T17:52:02.044Z,273.90
2022-12-26T17:54:51.352Z,236.88
2022-12-26T17:57:37.116Z,254.75
2022-12-26T18:00:26.019Z,225.40
2022-12-26T18:03:12.239Z,104.18
2022-12-26T18:05:58.342Z,93.07
2022-12-26T18:08:44.765Z,92.78
2022-12-26T18:11:30.759Z,114.63
2022-12-26T18:14:16.432Z,97.88
2022-12-26T18:17:03.070Z,110.55
2022-12-26T18:19:50.224Z,104.45
2022-12-26T18:22:36.068Z,86.97
2022-12-26T18:25:24.817Z,82.70
2022-12-26T18:28:15.265Z,77.50
2022-12-26T18:31:01.360Z,78.03
2022-12-26T18:33:47.257Z,79.22
2022-12-26T18:36:35.850Z,85.78
2022-12-26T18:39:21.805Z,91.97
2022-12-26T18:42:12.047Z,102.45
2022-12-26T18:44:57.770Z,110.15
2022-12-26T18:47:43.448Z,106.88
2022-12-26T18:50:30.209Z,99.55
2022-12-26T18:53:15.955Z,92.13
2022-12-26T18:56:01.988Z,93.35
2022-12-26T18:58:54.065Z,87.75
2022-12-26T19:01:43.843Z,86.78
2022-12-26T19:04:29.726Z,87.78
2022-12-26T19:07:17.370Z,86.32
2022-12-26T19:10:03.018Z,89.30
2022-12-26T19:12:48.830Z,93.10
2022-12-26T19:15:36.013Z,87.25
2022-12-26T19:18:21.753Z,77.97
2022-12-26T19:21:16.505Z,84.78
2022-12-26T19:24:02.683Z,83.88
2022-12-26T19:26:48.715Z,84.40
2022-12-26T19:29:34.391Z,112.40
2022-12-26T19:32:20.366Z,107.43
2022-12-26T19:35:07.753Z,112.65
2022-12-26T19:37:53.597Z,107.97
2022-12-26T19:40:39.591Z,109.15
2022-12-26T19:43:25.343Z,105.95
2022-12-26T19:46:15.482Z,104.30
2022-12-26T19:49:01.449Z,103.88
2022-12-26T19:51:47.672Z,96.10
2022-12-26T19:54:42.922Z,98.70
2022-12-26T19:57:43.706Z,91.53
2022-12-26T20:00:30.883Z,92.28
2022-12-26T20:03:16.822Z,93.28
2022-12-26T20:06:15.436Z,90.65
2022-12-26T20:09:05.762Z,85.65
2022-12-26T20:11:54.206Z,77.43
2022-12-26T20:14:40.082Z,70.40
2022-12-26T20:17:26.128Z,73.30
2022-12-26T20:20:11.941Z,68.68
2022-12-26T20:22:57.842Z,71.57
2022-12-26T20:25:43.534Z,71.63
2022-12-26T20:28:29.801Z,73.22
2022-12-26T20:31:19.416Z,70.53
2022-12-26T20:34:05.377Z,72.15
2022-12-26T20:36:51.562Z,74.13
2022-12-26T20:39:37.572Z,76.82
2022-12-26T20:42:23.464Z,75.43
2022-12-26T20:45:09.632Z,80.38
2022-12-26T20:47:55.429Z,76.45
2022-12-26T20:50:41.366Z,71.15
2022-12-26T20:53:28.364Z,66.57
2022-12-26T20:56:14.817Z,68.72
2022-12-26T20:59:00.881Z,71.50
2022-12-26T21:01:46.778Z,64.70
2022-12-26T21:04:33.300Z,69.00
2022-12-26T21:07:19.425Z,71.53
2022-12-26T21:10:05.481Z,66.93
2022-12-26T21:12:53.433Z,75.63
2022-12-26T21:15:39.631Z,74.32
2022-12-26T21:18:25.702Z,73.75
2022-12-26T21:21:17.083Z,77.57
2022-12-26T21:24:10.871Z,68.88
2022-12-26T21:26:57.189Z,59.17
2022-12-26T21:29:42.995Z,61.53
2022-12-26T21:32:28.658Z,61.78
2022-12-26T21:35:14.960Z,59.30
2022-12-26T21:38:01.153Z,62.70
2022-12-26T21:40:47.372Z,57.95
2022-12-26T21:43:34.240Z,56.28
2022-12-26T21:46:20.660Z,57.17
2022-12-26T21:49:06.425Z,59.28
2022-12-26T21:51:52.052Z,56.08
2022-12-26T21:54:56.378Z,63.80
2022-12-26T21:57:42.182Z,56.08
2022-12-26T22:00:31.377Z,55.90
2022-12-26T22:03:52.539Z,52.88
2022-12-26T22:06:38.696Z,51.17
2022-12-26T22:09:25.044Z,53.40
2022-12-26T22:12:30.185Z,56.90
2022-12-26T22:15:34.948Z,53.20
2022-12-26T22:18:21.405Z,53.15
2022-12-26T22:21:12.987Z,51.35
2022-12-26T22:23:59.765Z,46.03
2022-12-26T22:26:45.910Z,55.65
2022-12-26T22:29:31.715Z,50.88
2022-12-26T22:32:17.454Z,53.30
2022-12-26T22:35:03.656Z,55.95
2022-12-26T22:37:49.451Z,56.55
2022-12-26T22:40:36.124Z,53.30
2022-12-26T22:43:22.311Z,55.22
2022-12-26T22:46:08.221Z,57.72
2022-12-26T22:48:54.038Z,54.38
2022-12-26T22:51:39.702Z,58.65
2022-12-26T22:54:26.079Z,53.80
2022-12-26T22:57:12.133Z,65.85
2022-12-26T23:00:08.235Z,69.55
2022-12-26T23:02:55.222Z,65.20
2022-12-26T23:05:41.592Z,61.63
2022-12-26T23:08:28.256Z,60.58
2022-12-26T23:11:14.497Z,55.80
2022-12-26T23:14:01.357Z,59.78
2022-12-26T23:16:58.385Z,59.45
2022-12-26T23:20:07.965Z,60.88
2022-12-26T23:22:54.095Z,49.72
2022-12-26T23:25:40.200Z,53.88
2022-12-26T23:28:44.619Z,49.97
2022-12-26T23:31:30.641Z,56.63
2022-12-26T23:34:16.369Z,58.42
2022-12-26T23:37:02.784Z,59.00
2022-12-26T23:39:48.646Z,53.90
2022-12-26T23:42:34.267Z,54.65
2022-12-26T23:45:20.191Z,55.92
2022-12-26T23:48:06.065Z,53.95
2022-12-26T23:51:03.914Z,57.05
2022-12-26T23:53:49.602Z,56.58
2022-12-26T23:56:36.978Z,61.90
2022-12-26T23:59:23.564Z,66.05
